x

Luke Offshore Test Platform - 64 Nm South Of Dauphin Island, Al (42040) Wave Buoy

4:50am - Sat 31st Jan 2015 All times are CST. -6 hours from GMT.

  • Sig Wave height 3.9ft
  • Swell Direction
  • Peak Period 5s
  • Average Period 4s
  • Wind
    22mph, 27mph gusts
  • Sea Temp 68°f
  • Air Temp 59°f
  • Sea Pressure 1024.4mb
  • Luke Offshore Test Platform - 64 Nm South Of Dauphin Island, Al
  • Luke Offshore Test Platform - 64 Nm South Of Dauphin Island, Al

More Historic Weather Station data

Upgrade to MSW Pro to gain access to the past 30 days of data for over 8000 Wavebouys and Weather Stations around the globe.

Join Pro

Comparision Forecast

View Surf forecast
   
Sat 01/31 4:50am 4ft 5s 4s 22 27 mph 1024.4mb 68f 59f
3:50am 4ft 5s 4s 20 25 mph 1024.8mb 68f 59f
2:50am 4ft 6s 4s 20 22 mph 1025.2mb 68f 59f
1:50am 4ft 5s 4s 18 22 mph 1025.5mb 68f 59f
12:50am 4ft 5s 4s 20 25 mph 1025.8mb 68f 59f
Fri 01/30 11:50pm 4ft 5s 4s 20 25 mph 1026.3mb 68f 59f
10:50pm 3.5ft 5s 4s 20 27 mph 1026.7mb 68f 59f
9:50pm 3.5ft 4s 4s 20 25 mph 1026.8mb 68f 60f
8:50pm 3ft 4s 4s 20 25 mph 1026.9mb 68f 61f
7:50pm 3ft 5s 4s 20 25 mph 1026.5mb 68f 60f
6:50pm 3.5ft 6s 4s 18 22 mph 1026.1mb 68f 58f
5:50pm 3.5ft 5s 4s 16 22 mph 1026mb 68f 57f
4:50pm 4.5ft 6s 5s 16 20 mph 1026mb 69f 56f
3:50pm 4.5ft 6s 5s 16 20 mph 1025.9mb 69f 56f
2:50pm 5ft 6s 5s 18 22 mph 1025.7mb 69f 55f
1:50pm 5.5ft 6s 5s 20 25 mph 1026mb 69f 54f
12:50pm 5ft 6s 5s 20 25 mph 1026.6mb 69f 54f
11:50am 5.5ft 6s 5s 22 25 mph 1027.4mb 69f 53f
10:50am 6ft 6s 5s 22 29 mph 1027.9mb 69f 53f
9:50am 6ft 6s 5s 29 34 mph 1027.6mb 69f 54f
8:50am 6ft 6s 5s 25 29 mph 1026.8mb 68f 55f
7:50am 5ft 5s 4s 27 34 mph 1025.9mb 68f 57f
6:50am 4.5ft 5s 4s 25 31 mph 1025mb 68f 60f
5:50am 4ft 4s 4s 29 36 mph 1024.1mb 68f 61f
4:50am 3.5ft 4s 4s 27 34 mph 1023.2mb 68f 63f
3:50am 3ft 4s 4s 25 29 mph 1023mb 68f 64f
2:50am 3.5ft 4s 4s 22 25 mph 1023.1mb 68f 66f
1:50am 2.5ft 4s 4s 22 25 mph 1023.3mb 68f 67f
12:50am 2.5ft 3s 3s 20 25 mph 1023.4mb 68f 68f
Thu 01/29 11:50pm 1.6ft 3s 3s 18 22 mph 1023.7mb 68f 69f
10:50pm 1.6ft 5s 4s 16 18 mph 1024.1mb 68f 69f
9:50pm 1.6ft 5s 4s 16
mph
1023.8mb 68f 68f
8:50pm 1.6ft 5s 4s 13 16 mph 1023.8mb 69f 68f
7:50pm 1.6ft 5s 4s 13 16 mph 1023.8mb 69f 68f
6:50pm 1.6ft 5s 4s 11 13 mph 1023.7mb 69f 68f
5:50pm 1.6ft 5s 4s 11
mph
1023.6mb 69f 68f
4:50pm 2ft 5s 4s 9 11 mph 1023.6mb 69f 68f
3:50pm 1.6ft 5s  -  9
mph
1023.7mb 70f 68f
2:50pm 1.6ft 5s 4s 9 11 mph 1023.7mb 70f 68f
1:50pm 2ft 5s 4s 9 11 mph 1023.9mb 70f 67f
12:50pm 2ft 5s 4s 11 13 mph 1024.4mb 69f 67f
11:50am 2.5ft 4s 4s 9 13 mph 1025.4mb 69f 66f
10:50am 2.5ft 5s 4s 16 18 mph 1025.4mb 69f 65f
9:50am 2ft 5s 4s 16 18 mph 1025.9mb 69f 65f
8:50am 2ft 4s 4s 16 18 mph 1025.7mb 69f 65f
7:50am 2ft 4s 4s 13 16 mph 1025.8mb 68f 64f
6:50am 1.6ft 4s 4s 9 11 mph 1025.6mb 68f 64f
5:50am 2ft 5s 4s 9 13 mph 1024.9mb 68f 64f
4:50am 2ft 4s 4s 9 11 mph 1024.7mb 68f 63f
3:50am 2ft 4s 4s 11 16 mph 1024.3mb 68f 63f
2:50am 1.6ft 4s 4s 11 16 mph 1024.4mb 68f 63f
1:50am 2ft 5s 4s 11 13 mph 1024.3mb 68f 63f
12:50am 2ft 3s 3s 16 18 mph 1023.6mb 68f 63f
Wed 01/28 11:50pm 1.6ft 5s 4s 16 18 mph 1023.5mb 68f 63f
10:50pm 1.6ft 5s 4s 13 18 mph 1023.9mb 68f 62f
9:50pm 1.6ft 5s 4s 11 16 mph 1024.4mb 68f 62f
8:50pm 2ft 5s 4s 11 13 mph 1025mb 68f 62f
7:50pm 2ft 5s 4s 11 13 mph 1025.2mb 68f 62f
6:50pm 2ft 5s 4s 9 11 mph 1025mb 68f 61f
5:50pm 2ft 5s 4s 7 11 mph 1024.7mb 68f 61f
4:50pm 2.5ft 5s 4s 11
mph
1024.2mb 69f 60f
3:50pm 2.5ft 5s 4s 9 11 mph 1024.1mb 69f 60f
2:50pm 2.5ft 5s 4s 11 13 mph 1023.9mb 68f 60f
1:50pm 2.5ft 5s 4s 11 13 mph 1024.2mb 68f 59f
12:50pm 3ft 5s 4s 13 16 mph 1024.4mb 68f 59f
11:50am 3ft 5s 4s 13 18 mph 1025.3mb 67f 59f
10:50am 3ft 5s 4s 16 18 mph 1025.8mb 67f 58f
9:50am 3ft 5s 4s 18 20 mph 1025.7mb 67f 59f
8:50am 3ft 5s 4s 18 22 mph 1025mb 67f 59f
7:50am 3ft 5s 4s 16 18 mph 1024.8mb 67f 60f
6:50am 3ft 4s 4s 18 20 mph 1024mb 66f 60f
5:50am 3ft 5s 4s 16 20 mph 1023.1mb 66f 60f
4:50am 3ft 4s 4s 18 20 mph 1022.4mb 66f 60f
3:50am 3ft 4s 4s 16 22 mph 1022mb 66f 61f
2:50am 2.5ft 4s 4s 20 22 mph 1021.8mb 66f 61f
1:50am 2.5ft 6s 4s 18 22 mph 1021.4mb 66f 62f
12:50am 3ft 6s 4s 18 22 mph 1021.1mb 66f 65f
Tue 01/27 11:50pm 3ft 6s 4s 18 22 mph 1021mb 66f 66f
10:50pm 2.5ft 6s 4s 18 20 mph 1020.7mb 66f 67f
9:50pm 2.5ft 6s 4s 16 18 mph 1020.5mb 66f 66f
8:50pm 2.5ft 6s 4s 16 20 mph 1020mb 66f 66f
7:50pm 2.5ft 6s 4s 18 20 mph 1019.9mb 66f 66f
6:50pm 2.5ft 7s 4s 13 16 mph 1019.5mb 66f 64f
5:50pm 2.5ft 7s 4s 13 16 mph 1019mb 66f 64f
4:50pm 3ft 6s 5s 13 16 mph 1018.6mb 67f 63f
3:50pm 3.5ft 6s 5s 13 16 mph 1018.5mb 67f 62f
2:50pm 3.5ft 7s 4s 11 16 mph 1018.2mb 69f 62f
1:50pm 3.5ft 6s 4s 9 11 mph 1018.3mb 69f 61f
12:50pm 4ft 4s 4s 11 16 mph 1018.8mb 69f 61f